sensor_id;sensor_type;location;lat;lon;timestamp;temperature;humidity
22108;DHT22;11220;48.812;9.128;2022-08-19T03:03:18;23.00;89.10
22108;DHT22;11220;48.812;9.128;2022-08-19T03:05:44;23.80;89.80
22108;DHT22;11220;48.812;9.128;2022-08-19T03:08:10;23.50;89.60
22108;DHT22;11220;48.812;9.128;2022-08-19T03:10:42;23.00;89.20
22108;DHT22;11220;48.812;9.128;2022-08-19T03:13:10;23.00;89.20
22108;DHT22;11220;48.812;9.128;2022-08-19T03:15:40;23.10;89.30
22108;DHT22;11220;48.812;9.128;2022-08-19T03:18:05;23.70;89.90
22108;DHT22;11220;48.812;9.128;2022-08-19T03:20:31;23.50;89.60
22108;DHT22;11220;48.812;9.128;2022-08-19T03:22:56;23.30;89.50
22108;DHT22;11220;48.812;9.128;2022-08-19T03:25:22;22.90;89.30
22108;DHT22;11220;48.812;9.128;2022-08-19T03:27:48;23.40;89.60
22108;DHT22;11220;48.812;9.128;2022-08-19T03:30:14;22.90;89.30
22108;DHT22;11220;48.812;9.128;2022-08-19T03:32:39;22.90;89.30
22108;DHT22;11220;48.812;9.128;2022-08-19T03:35:06;22.90;89.30
22108;DHT22;11220;48.812;9.128;2022-08-19T03:37:31;22.90;89.30
22108;DHT22;11220;48.812;9.128;2022-08-19T03:39:57;23.00;89.50
22108;DHT22;11220;48.812;9.128;2022-08-19T03:42:23;22.90;89.40
22108;DHT22;11220;48.812;9.128;2022-08-19T03:44:48;22.90;90.10
22108;DHT22;11220;48.812;9.128;2022-08-19T03:47:14;22.90;89.50
22108;DHT22;11220;48.812;9.128;2022-08-19T03:49:42;22.90;89.50
22108;DHT22;11220;48.812;9.128;2022-08-19T03:52:07;22.90;89.50
22108;DHT22;11220;48.812;9.128;2022-08-19T03:54:33;23.10;89.70
22108;DHT22;11220;48.812;9.128;2022-08-19T03:56:59;22.90;89.60
22108;DHT22;11220;48.812;9.128;2022-08-19T03:59:28;22.90;89.60
22108;DHT22;11220;48.812;9.128;2022-08-19T04:01:55;22.90;89.60
22108;DHT22;11220;48.812;9.128;2022-08-19T04:04:22;23.60;90.00
22108;DHT22;11220;48.812;9.128;2022-08-19T04:06:47;22.80;89.60
22108;DHT22;11220;48.812;9.128;2022-08-19T04:09:13;23.00;89.70
22108;DHT22;11220;48.812;9.128;2022-08-19T04:11:48;22.80;90.00
22108;DHT22;11220;48.812;9.128;2022-08-19T04:14:21;22.90;89.60
22108;DHT22;11220;48.812;9.128;2022-08-19T04:16:48;24.10;90.30
22108;DHT22;11220;48.812;9.128;2022-08-19T04:19:15;23.90;90.10
22108;DHT22;11220;48.812;9.128;2022-08-19T04:21:44;22.80;89.70
22108;DHT22;11220;48.812;9.128;2022-08-19T04:24:11;22.90;89.60
22108;DHT22;11220;48.812;9.128;2022-08-19T04:26:37;23.40;89.90
22108;DHT22;11220;48.812;9.128;2022-08-19T04:29:08;24.20;90.10
22108;DHT22;11220;48.812;9.128;2022-08-19T04:31:34;22.80;89.60
22108;DHT22;11220;48.812;9.128;2022-08-19T04:34:05;23.20;90.00
22108;DHT22;11220;48.812;9.128;2022-08-19T04:36:33;23.10;89.70
22108;DHT22;11220;48.812;9.128;2022-08-19T04:39:03;22.80;89.60
22108;DHT22;11220;48.812;9.128;2022-08-19T04:41:29;24.20;90.20
22108;DHT22;11220;48.812;9.128;2022-08-19T04:44:15;22.80;89.80
22108;DHT22;11220;48.812;9.128;2022-08-19T04:46:50;22.80;89.80
22108;DHT22;11220;48.812;9.128;2022-08-19T04:49:20;22.80;89.70
22108;DHT22;11220;48.812;9.128;2022-08-19T04:51:51;22.80;89.60
22108;DHT22;11220;48.812;9.128;2022-08-19T04:54:19;23.20;90.00
22108;DHT22;11220;48.812;9.128;2022-08-19T04:56:51;22.80;89.70
22108;DHT22;11220;48.812;9.128;2022-08-19T04:59:18;22.80;89.70
22108;DHT22;11220;48.812;9.128;2022-08-19T05:01:44;24.40;90.20
22108;DHT22;11220;48.812;9.128;2022-08-19T05:04:18;23.80;90.30
22108;DHT22;11220;48.812;9.128;2022-08-19T05:06:48;24.40;90.30
22108;DHT22;11220;48.812;9.128;2022-08-19T05:09:14;22.70;89.70
22108;DHT22;11220;48.812;9.128;2022-08-19T05:11:41;22.70;89.50
22108;DHT22;11220;48.812;9.128;2022-08-19T05:14:07;22.70;90.00
22108;DHT22;11220;48.812;9.128;2022-08-19T05:16:33;22.80;89.70
22108;DHT22;11220;48.812;9.128;2022-08-19T05:18:59;22.80;89.70
22108;DHT22;11220;48.812;9.128;2022-08-19T05:21:44;23.10;90.00
22108;DHT22;11220;48.812;9.128;2022-08-19T05:24:29;22.80;89.80
22108;DHT22;11220;48.812;9.128;2022-08-19T05:26:55;22.80;89.90
22108;DHT22;11220;48.812;9.128;2022-08-19T05:29:29;23.00;90.00
22108;DHT22;11220;48.812;9.128;2022-08-19T05:31:58;22.80;90.10
22108;DHT22;11220;48.812;9.128;2022-08-19T05:34:25;22.80;90.00
22108;DHT22;11220;48.812;9.128;2022-08-19T05:36:55;24.00;90.20
22108;DHT22;11220;48.812;9.128;2022-08-19T05:39:24;23.90;90.30
22108;DHT22;11220;48.812;9.128;2022-08-19T05:42:02;22.80;90.00
22108;DHT22;11220;48.812;9.128;2022-08-19T05:44:34;22.80;89.90
22108;DHT22;11220;48.812;9.128;2022-08-19T05:47:01;22.80;90.10
22108;DHT22;11220;48.812;9.128;2022-08-19T05:49:28;22.80;90.00
22108;DHT22;11220;48.812;9.128;2022-08-19T05:51:54;22.80;90.10
22108;DHT22;11220;48.812;9.128;2022-08-19T05:54:21;23.30;90.20
22108;DHT22;11220;48.812;9.128;2022-08-19T05:56:50;22.80;90.10
22108;DHT22;11220;48.812;9.128;2022-08-19T05:59:17;22.80;90.20
22108;DHT22;11220;48.812;9.128;2022-08-19T06:01:47;22.80;90.10
22108;DHT22;11220;48.812;9.128;2022-08-19T06:04:17;22.80;90.10
22108;DHT22;11220;48.812;9.128;2022-08-19T06:06:48;22.70;89.60
22108;DHT22;11220;48.812;9.128;2022-08-19T06:09:14;22.60;89.40
22108;DHT22;11220;48.812;9.128;2022-08-19T06:11:55;22.60;89.70
22108;DHT22;11220;48.812;9.128;2022-08-19T06:14:25;22.40;89.90
22108;DHT22;11220;48.812;9.128;2022-08-19T06:16:51;23.30;90.40
22108;DHT22;11220;48.812;9.128;2022-08-19T06:19:19;23.00;90.60
22108;DHT22;11220;48.812;9.128;2022-08-19T06:21:47;22.10;90.50
22108;DHT22;11220;48.812;9.128;2022-08-19T06:24:15;22.00;90.60
22108;DHT22;11220;48.812;9.128;2022-08-19T06:26:43;21.90;90.70
22108;DHT22;11220;48.812;9.128;2022-08-19T06:29:10;22.30;91.00
22108;DHT22;11220;48.812;9.128;2022-08-19T06:31:40;22.90;91.30
22108;DHT22;11220;48.812;9.128;2022-08-19T06:34:06;21.80;91.20
22108;DHT22;11220;48.812;9.128;2022-08-19T06:36:38;21.60;91.20
22108;DHT22;11220;48.812;9.128;2022-08-19T06:39:13;21.70;91.30
22108;DHT22;11220;48.812;9.128;2022-08-19T06:41:47;21.60;91.30
22108;DHT22;11220;48.812;9.128;2022-08-19T06:44:14;21.60;91.50
22108;DHT22;11220;48.812;9.128;2022-08-19T06:46:40;21.60;91.60
22108;DHT22;11220;48.812;9.128;2022-08-19T06:49:06;21.50;91.60
22108;DHT22;11220;48.812;9.128;2022-08-19T06:51:36;22.30;91.90
22108;DHT22;11220;48.812;9.128;2022-08-19T06:54:02;22.40;92.00
22108;DHT22;11220;48.812;9.128;2022-08-19T06:56:30;21.50;92.00
22108;DHT22;11220;48.812;9.128;2022-08-19T06:59:01;21.50;92.20
22108;DHT22;11220;48.812;9.128;2022-08-19T07:01:27;21.40;92.40
22108;DHT22;11220;48.812;9.128;2022-08-19T07:03:52;21.80;92.90
22108;DHT22;11220;48.812;9.128;2022-08-19T07:06:19;22.40;93.30
22108;DHT22;11220;48.812;9.128;2022-08-19T07:08:46;21.40;93.20
22108;DHT22;11220;48.812;9.128;2022-08-19T07:11:15;21.30;93.30
22108;DHT22;11220;48.812;9.128;2022-08-19T07:13:43;21.30;93.50
22108;DHT22;11220;48.812;9.128;2022-08-19T07:16:16;21.20;93.70
22108;DHT22;11220;48.812;9.128;2022-08-19T07:18:43;21.20;93.80
22108;DHT22;11220;48.812;9.128;2022-08-19T07:21:20;21.20;93.80
22108;DHT22;11220;48.812;9.128;2022-08-19T07:23:48;21.20;93.90
22108;DHT22;11220;48.812;9.128;2022-08-19T07:26:20;21.50;94.00
22108;DHT22;11220;48.812;9.128;2022-08-19T07:28:47;21.10;94.00
22108;DHT22;11220;48.812;9.128;2022-08-19T07:31:17;21.10;94.10
22108;DHT22;11220;48.812;9.128;2022-08-19T07:33:44;21.00;94.20
22108;DHT22;11220;48.812;9.128;2022-08-19T07:36:12;22.10;94.50
22108;DHT22;11220;48.812;9.128;2022-08-19T07:38:39;22.30;94.50
22108;DHT22;11220;48.812;9.128;2022-08-19T07:41:06;21.10;94.10
22108;DHT22;11220;48.812;9.128;2022-08-19T07:43:32;21.10;94.10
22108;DHT22;11220;48.812;9.128;2022-08-19T07:45:57;21.00;94.20
22108;DHT22;11220;48.812;9.128;2022-08-19T07:48:27;21.10;94.30
22108;DHT22;11220;48.812;9.128;2022-08-19T07:50:54;21.10;94.30
22108;DHT22;11220;48.812;9.128;2022-08-19T07:53:21;21.10;94.50
22108;DHT22;11220;48.812;9.128;2022-08-19T07:55:57;21.10;94.20
22108;DHT22;11220;48.812;9.128;2022-08-19T07:58:31;21.10;94.00
22108;DHT22;11220;48.812;9.128;2022-08-19T08:00:57;21.10;94.00
22108;DHT22;11220;48.812;9.128;2022-08-19T08:03:24;21.10;94.00
22108;DHT22;11220;48.812;9.128;2022-08-19T08:06:12;21.10;93.90
22108;DHT22;11220;48.812;9.128;2022-08-19T08:08:58;21.10;93.90
22108;DHT22;11220;48.812;9.128;2022-08-19T08:11:44;22.00;94.20
22108;DHT22;11220;48.812;9.128;2022-08-19T08:14:16;21.20;93.90
22108;DHT22;11220;48.812;9.128;2022-08-19T08:16:42;21.30;93.90
22108;DHT22;11220;48.812;9.128;2022-08-19T08:19:18;21.30;93.90
22108;DHT22;11220;48.812;9.128;2022-08-19T08:21:44;21.30;93.80
22108;DHT22;11220;48.812;9.128;2022-08-19T08:24:22;21.30;93.70
22108;DHT22;11220;48.812;9.128;2022-08-19T08:26:49;21.40;93.70
22108;DHT22;11220;48.812;9.128;2022-08-19T08:29:22;21.50;93.70
22108;DHT22;11220;48.812;9.128;2022-08-19T08:31:48;21.50;93.60
22108;DHT22;11220;48.812;9.128;2022-08-19T08:34:14;21.60;93.60
22108;DHT22;11220;48.812;9.128;2022-08-19T08:36:44;21.60;93.50
22108;DHT22;11220;48.812;9.128;2022-08-19T08:39:14;20.70;93.60
22108;DHT22;11220;48.812;9.128;2022-08-19T08:44:46;22.50;93.50
22108;DHT22;11220;48.812;9.128;2022-08-19T08:47:17;22.00;93.30
22108;DHT22;11220;48.812;9.128;2022-08-19T08:49:59;21.90;93.20
22108;DHT22;11220;48.812;9.128;2022-08-19T08:52:31;21.80;93.10
22108;DHT22;11220;48.812;9.128;2022-08-19T08:55:16;21.80;93.10
22108;DHT22;11220;48.812;9.128;2022-08-19T08:58:05;21.90;93.10
22108;DHT22;11220;48.812;9.128;2022-08-19T09:00:48;21.90;93.10
22108;DHT22;11220;48.812;9.128;2022-08-19T09:03:24;21.90;93.10
22108;DHT22;11220;48.812;9.128;2022-08-19T09:06:14;21.90;93.00
22108;DHT22;11220;48.812;9.128;2022-08-19T09:09:00;21.90;93.00
22108;DHT22;11220;48.812;9.128;2022-08-19T09:15:07;22.00;93.00
22108;DHT22;11220;48.812;9.128;2022-08-19T20:54:59;21.90;95.00
22108;DHT22;11220;48.812;9.128;2022-08-19T20:57:25;21.90;94.60
22108;DHT22;11220;48.812;9.128;2022-08-19T20:59:54;21.90;94.50
22108;DHT22;11220;48.812;9.128;2022-08-19T21:02:20;23.00;94.60
22108;DHT22;11220;48.812;9.128;2022-08-19T21:04:56;22.00;94.20
22108;DHT22;11220;48.812;9.128;2022-08-19T21:07:26;22.00;94.10
22108;DHT22;11220;48.812;9.128;2022-08-19T21:09:55;22.00;94.10
22108;DHT22;11220;48.812;9.128;2022-08-19T21:15:09;22.00;94.40
22108;DHT22;11220;48.812;9.128;2022-08-19T21:17:34;22.10;94.50
22108;DHT22;11220;48.812;9.128;2022-08-19T21:20:19;23.10;94.30
22108;DHT22;11220;48.812;9.128;2022-08-19T21:22:44;22.10;94.00
22108;DHT22;11220;48.812;9.128;2022-08-19T21:25:39;23.60;94.50
22108;DHT22;11220;48.812;9.128;2022-08-19T21:28:07;22.50;94.10
22108;DHT22;11220;48.812;9.128;2022-08-19T21:30:33;22.50;94.00
22108;DHT22;11220;48.812;9.128;2022-08-19T21:33:03;24.20;94.80
22108;DHT22;11220;48.812;9.128;2022-08-19T21:35:35;24.20;94.50
22108;DHT22;11220;48.812;9.128;2022-08-19T21:38:00;22.30;94.20
22108;DHT22;11220;48.812;9.128;2022-08-19T21:40:30;22.20;94.70
22108;DHT22;11220;48.812;9.128;2022-08-19T21:42:59;24.20;95.10
22108;DHT22;11220;48.812;9.128;2022-08-19T21:45:29;23.80;94.50
22108;DHT22;11220;48.812;9.128;2022-08-19T21:47:55;23.10;94.00
22108;DHT22;11220;48.812;9.128;2022-08-19T21:50:21;23.80;94.50
22108;DHT22;11220;48.812;9.128;2022-08-19T21:53:22;22.20;93.70
